Terminal Aerodrome Forecast
Issued by NWS

Home | Current Version | Previous Version | Text Only | Print | Product List | Glossary On
Versions: 1 2 3 4 5 6 7 8 9 10 11 12 13 14 15 16 17 18 19 20 21 22
000
FTUS45 KABQ 190500
TAFROW
TAF
KROW 190527Z 1906/2006 09010KT 2SM RA BR SCT007 BKN025 OVC050
      TEMPO 1906/1908 6SM -RA BR SCT007 OVC040
     FM190800 09005KT P6SM VCSH SCT015 BKN025 OVC040
     FM191600 36010KT P6SM VCFG SCT007 BKN015 OVC025
     FM191800 36010KT P6SM SCT025 OVC040
     FM200000 33005KT P6SM SCT025 OVC040=

USA.gov is the U.S. government's official web portal to all federal, state and local government web resources and services.